createdAt,value
2022-12-14T00:00:33.259Z,1381.72
2022-12-14T00:01:36.774Z,1438.65
2022-12-14T00:02:42.865Z,1512.68
2022-12-14T00:03:50.281Z,1460.42
2022-12-14T00:04:53.668Z,1445.72
2022-12-14T00:06:03.117Z,1397.29
2022-12-14T00:07:07.877Z,1357.18
2022-12-14T00:08:15.545Z,1345.64
2022-12-14T00:09:21.455Z,1332.50
2022-12-14T00:10:25.640Z,1316.53
2022-12-14T00:11:35.250Z,1332.17
2022-12-14T00:12:41.222Z,1332.31
2022-12-14T00:13:44.919Z,1323.05
2022-12-14T00:14:55.183Z,1295.55
2022-12-14T00:15:59.258Z,1266.76
2022-12-14T00:17:06.006Z,1245.77
2022-12-14T00:18:11.713Z,1198.07
2022-12-14T00:19:17.697Z,1179.36
2022-12-14T00:20:21.187Z,1126.55
2022-12-14T00:21:31.169Z,1074.95
2022-12-14T00:22:35.326Z,1094.12
2022-12-14T00:23:43.338Z,1083.85
2022-12-14T00:24:46.810Z,1070.77
2022-12-14T00:25:52.838Z,1090.98
2022-12-14T00:26:56.137Z,1111.27
2022-12-14T00:28:03.077Z,1094.33
2022-12-14T00:29:06.418Z,1088.17
2022-12-14T00:30:14.703Z,1085.58
2022-12-14T00:31:18.360Z,1094.64
2022-12-14T00:32:26.547Z,1097.24
2022-12-14T00:33:31.135Z,1140.73
2022-12-14T00:34:37.262Z,1146.52
2022-12-14T00:35:40.641Z,1136.44
2022-12-14T00:36:49.163Z,1241.17
2022-12-14T00:37:52.545Z,1294.07
2022-12-14T00:38:59.351Z,1318.84
2022-12-14T00:40:02.724Z,1310.21
2022-12-14T00:41:10.070Z,1335.21
2022-12-14T00:42:13.419Z,1380.69
2022-12-14T00:43:19.407Z,1424.51
2022-12-14T00:44:26.430Z,1453.13
2022-12-14T00:45:29.795Z,1422.15
2022-12-14T00:46:35.819Z,1428.63
2022-12-14T00:47:40.975Z,1440.43
2022-12-14T00:48:47.262Z,1510.31
2022-12-14T00:49:53.655Z,1439.56
2022-12-14T00:51:00.095Z,1452.57
2022-12-14T00:52:08.912Z,1447.65
2022-12-14T00:53:12.702Z,1472.26
2022-12-14T00:54:19.131Z,1475.35
2022-12-14T00:55:23.422Z,1460.78
2022-12-14T00:56:29.505Z,1457.66
2022-12-14T00:57:32.820Z,1449.61
2022-12-14T00:58:39.128Z,1418.97
2022-12-14T00:59:43.327Z,1441.08
2022-12-14T01:01:02.356Z,1398.32
2022-12-14T01:02:06.359Z,1390.63
2022-12-14T01:03:13.905Z,1404.64
2022-12-14T01:04:22.619Z,1368.48
2022-12-14T01:05:29.076Z,1376.44
2022-12-14T01:06:33.182Z,1360.76
2022-12-14T01:07:41.771Z,1351.63
2022-12-14T01:08:45.210Z,1330.75
2022-12-14T01:09:51.177Z,1292.36
2022-12-14T01:10:54.753Z,1300.63
2022-12-14T01:12:01.575Z,1293.85
2022-12-14T01:13:04.859Z,1265.89
2022-12-14T01:14:12.280Z,1281.80
2022-12-14T01:15:15.636Z,1213.49
2022-12-14T01:16:21.663Z,1188.37
2022-12-14T01:17:28.615Z,1182.41
2022-12-14T01:18:35.472Z,1170.00
2022-12-14T01:19:41.617Z,1147.48
2022-12-14T01:20:45.060Z,1134.10
2022-12-14T01:21:51.071Z,1099.94
2022-12-14T01:22:58.060Z,1087.31
2022-12-14T01:24:06.702Z,1072.18
2022-12-14T01:25:10.291Z,1072.47
2022-12-14T01:26:17.997Z,1047.54
2022-12-14T01:27:21.520Z,1037.52
2022-12-14T01:28:28.513Z,1026.14
2022-12-14T01:29:34.515Z,1035.33
2022-12-14T01:30:40.508Z,1077.86
2022-12-14T01:31:48.621Z,1063.93
2022-12-14T01:32:53.050Z,1083.51
2022-12-14T01:34:00.959Z,1080.43
2022-12-14T01:35:05.305Z,1046.84
2022-12-14T01:36:14.800Z,988.21
2022-12-14T01:37:18.178Z,982.16
2022-12-14T01:38:26.860Z,968.49
2022-12-14T01:39:34.208Z,951.97
2022-12-14T01:40:38.044Z,964.64
2022-12-14T01:41:47.541Z,961.29
2022-12-14T01:42:50.967Z,1000.83
2022-12-14T01:44:00.272Z,962.95
2022-12-14T01:45:07.455Z,990.21
2022-12-14T01:46:13.565Z,1027.12
2022-12-14T01:47:31.788Z,1049.77
2022-12-14T01:48:35.270Z,1051.90
2022-12-14T01:49:52.021Z,1065.90
2022-12-14T01:50:56.387Z,1050.94
2022-12-14T01:52:12.657Z,1056.57
2022-12-14T01:53:28.978Z,1066.86
2022-12-14T01:54:41.073Z,1059.39
2022-12-14T01:55:55.022Z,1082.53
2022-12-14T01:57:00.093Z,1107.78
2022-12-14T01:58:14.356Z,1091.85
2022-12-14T01:59:26.831Z,1113.61
2022-12-14T02:00:33.342Z,1108.34
2022-12-14T02:01:37.674Z,1110.84
2022-12-14T02:02:51.344Z,1110.12
2022-12-14T02:03:55.303Z,1105.26
2022-12-14T02:05:08.953Z,1129.61
2022-12-14T02:06:20.137Z,1180.77
2022-12-14T02:07:30.876Z,1177.80
2022-12-14T02:08:47.059Z,1149.41
2022-12-14T02:09:54.135Z,1164.97
2022-12-14T02:11:02.902Z,1197.47
2022-12-14T02:12:15.357Z,1158.91
2022-12-14T02:13:29.205Z,1150.74
2022-12-14T02:14:34.506Z,1144.97
2022-12-14T02:15:42.620Z,1122.50
2022-12-14T02:16:46.217Z,1111.53
2022-12-14T02:17:53.119Z,1062.33
2022-12-14T02:18:56.505Z,1044.61
2022-12-14T02:20:02.906Z,1022.29
2022-12-14T02:21:35.435Z,1028.18
2022-12-14T02:23:35.491Z,1014.45
2022-12-14T02:25:20.553Z,1009.93
2022-12-14T02:27:00.255Z,1012.09
2022-12-14T02:28:56.612Z,1008.27
2022-12-14T02:30:08.966Z,988.93
2022-12-14T02:31:28.884Z,975.89
2022-12-14T02:33:04.998Z,988.95
2022-12-14T02:34:24.868Z,996.51
2022-12-14T02:35:49.764Z,948.11
2022-12-14T02:37:04.566Z,975.24
2022-12-14T02:38:34.839Z,954.68
2022-12-14T02:40:00.595Z,942.67
2022-12-14T02:41:20.260Z,976.67
2022-12-14T02:42:40.323Z,974.71
2022-12-14T02:44:07.291Z,980.94
2022-12-14T02:45:27.584Z,962.29
2022-12-14T02:46:50.560Z,953.88
2022-12-14T02:48:03.513Z,946.92
2022-12-14T02:49:19.276Z,923.52
2022-12-14T02:50:34.336Z,927.87
2022-12-14T02:51:59.162Z,943.48
2022-12-14T02:53:16.119Z,953.31
2022-12-14T02:54:34.627Z,935.99
2022-12-14T02:55:50.397Z,940.94
2022-12-14T02:57:12.264Z,922.43
2022-12-14T02:58:24.663Z,932.99
2022-12-14T02:59:31.839Z,921.81
2022-12-14T03:00:39.408Z,948.49
2022-12-14T03:01:47.970Z,957.44
2022-12-14T03:02:54.130Z,942.28
2022-12-14T03:04:00.373Z,931.35
2022-12-14T03:05:05.163Z,946.40
2022-12-14T03:06:26.437Z,940.88
2022-12-14T03:07:45.721Z,939.95
2022-12-14T03:09:04.171Z,948.27
2022-12-14T03:10:35.832Z,948.35
2022-12-14T03:11:56.386Z,956.04
2022-12-14T03:13:18.825Z,968.12
2022-12-14T03:14:31.922Z,941.43
2022-12-14T03:15:48.459Z,955.95
2022-12-14T03:16:57.578Z,934.29
2022-12-14T03:18:10.121Z,950.52
2022-12-14T03:19:23.539Z,912.87
2022-12-14T03:20:37.102Z,927.20
2022-12-14T03:21:51.880Z,911.23
2022-12-14T03:23:04.005Z,899.89
2022-12-14T03:24:19.315Z,867.63
2022-12-14T03:25:38.119Z,868.71
2022-12-14T03:26:53.753Z,857.07
2022-12-14T03:28:10.186Z,856.81
2022-12-14T03:29:23.130Z,853.72
2022-12-14T03:30:58.698Z,843.21
2022-12-14T03:32:06.987Z,827.15
2022-12-14T03:33:19.634Z,833.51
2022-12-14T03:34:34.690Z,825.55
2022-12-14T03:35:47.183Z,821.30
2022-12-14T03:37:03.359Z,816.10
2022-12-14T03:38:19.943Z,816.24
2022-12-14T03:39:36.546Z,788.89
2022-12-14T03:40:51.136Z,802.36
2022-12-14T03:42:13.670Z,782.18
2022-12-14T03:43:34.399Z,801.11
2022-12-14T03:44:50.295Z,798.65
2022-12-14T03:46:10.315Z,787.91
2022-12-14T03:47:46.915Z,775.24
2022-12-14T03:48:56.853Z,785.21
2022-12-14T03:50:11.618Z,786.66
2022-12-14T03:51:33.746Z,765.31
2022-12-14T03:52:46.876Z,755.01
2022-12-14T03:54:09.858Z,737.66
2022-12-14T03:55:33.374Z,732.53
2022-12-14T03:56:53.057Z,715.88
2022-12-14T03:58:26.641Z,722.36
2022-12-14T03:59:50.007Z,710.32
2022-12-14T04:01:07.036Z,722.10
2022-12-14T04:02:29.369Z,738.81
2022-12-14T04:03:56.670Z,748.88
2022-12-14T04:05:12.805Z,737.02
2022-12-14T04:06:32.359Z,752.54
2022-12-14T04:07:48.595Z,753.36
2022-12-14T04:09:07.309Z,733.55
2022-12-14T04:10:35.138Z,778.79
2022-12-14T04:12:06.501Z,767.99
2022-12-14T04:13:33.262Z,757.18
2022-12-14T04:15:02.815Z,759.43
2022-12-14T04:16:30.841Z,766.22
2022-12-14T04:17:57.954Z,790.31
2022-12-14T04:19:15.969Z,810.58
2022-12-14T04:20:31.188Z,803.49
2022-12-14T04:21:44.929Z,807.55
2022-12-14T04:23:02.439Z,810.73
2022-12-14T04:24:35.941Z,844.00
2022-12-14T04:26:02.554Z,836.24
2022-12-14T04:27:21.752Z,820.70
2022-12-14T04:28:50.752Z,821.32
2022-12-14T04:30:03.726Z,819.78
2022-12-14T04:31:15.349Z,832.88
2022-12-14T04:32:30.960Z,847.39
2022-12-14T04:33:47.655Z,857.17
2022-12-14T04:35:03.989Z,842.58
2022-12-14T04:36:08.564Z,845.65
2022-12-14T04:37:22.904Z,858.26
2022-12-14T04:38:37.708Z,874.52
2022-12-14T04:39:54.828Z,870.84
2022-12-14T04:41:10.621Z,884.10
2022-12-14T04:42:21.801Z,874.12
2022-12-14T04:43:34.905Z,883.58
2022-12-14T04:44:46.760Z,873.65
2022-12-14T04:46:02.471Z,848.68
2022-12-14T04:47:17.578Z,848.22
2022-12-14T04:48:37.166Z,824.95
2022-12-14T04:49:56.555Z,820.73
2022-12-14T04:51:17.623Z,807.83
2022-12-14T04:52:36.458Z,804.15
2022-12-14T04:53:50.685Z,769.08
2022-12-14T04:55:06.011Z,771.67
2022-12-14T04:56:23.734Z,754.67
2022-12-14T04:57:40.798Z,761.23
2022-12-14T04:58:44.802Z,744.23
2022-12-14T04:59:53.482Z,719.34
2022-12-14T05:01:22.778Z,690.97
2022-12-14T05:03:00.185Z,681.58
2022-12-14T05:04:19.249Z,706.99
2022-12-14T05:05:39.767Z,714.56
2022-12-14T05:07:07.729Z,721.76
2022-12-14T05:08:26.682Z,688.06
2022-12-14T05:09:42.296Z,724.69
2022-12-14T05:11:14.955Z,737.12
2022-12-14T05:12:34.185Z,706.03
2022-12-14T05:13:48.948Z,717.19
2022-12-14T05:15:09.424Z,735.63
2022-12-14T05:16:20.482Z,732.42
2022-12-14T05:17:27.459Z,731.13
2022-12-14T05:18:36.669Z,717.17
2022-12-14T05:19:49.130Z,698.29
2022-12-14T05:20:55.100Z,693.95
2022-12-14T05:22:10.839Z,665.78
2022-12-14T05:23:16.615Z,676.42
2022-12-14T05:24:22.524Z,670.52
2022-12-14T05:25:28.640Z,673.66
2022-12-14T05:26:32.648Z,674.86
2022-12-14T05:27:38.610Z,680.98
2022-12-14T05:28:45.924Z,670.07
2022-12-14T05:29:58.432Z,663.44
2022-12-14T05:31:01.905Z,666.36
2022-12-14T05:32:07.951Z,672.25
2022-12-14T05:33:19.571Z,667.29
2022-12-14T05:34:27.012Z,671.37
2022-12-14T05:35:30.473Z,663.21
2022-12-14T05:36:39.017Z,656.34
2022-12-14T05:37:45.448Z,657.20
2022-12-14T05:38:52.733Z,661.20
2022-12-14T05:39:59.358Z,653.95
2022-12-14T05:41:02.746Z,656.68
2022-12-14T05:42:10.547Z,656.49
2022-12-14T05:43:14.261Z,669.08
2022-12-14T05:44:20.167Z,651.37
2022-12-14T05:45:24.416Z,653.91
2022-12-14T05:46:30.435Z,647.37
2022-12-14T05:47:33.847Z,639.43
2022-12-14T05:48:39.690Z,656.33
2022-12-14T05:49:45.712Z,637.71
2022-12-14T05:50:54.031Z,641.62
2022-12-14T05:52:02.839Z,629.80
2022-12-14T05:53:06.239Z,626.79
2022-12-14T05:54:12.264Z,636.63
2022-12-14T05:55:17.220Z,644.02
2022-12-14T05:56:24.129Z,628.71
2022-12-14T05:57:30.018Z,633.72
2022-12-14T05:58:34.257Z,630.22
2022-12-14T05:59:40.280Z,628.20
2022-12-14T06:00:43.586Z,635.39
2022-12-14T06:01:53.248Z,634.65
2022-12-14T06:02:56.606Z,621.93
2022-12-14T06:04:02.686Z,627.61
2022-12-14T06:05:07.181Z,614.72
2022-12-14T06:06:16.594Z,606.52
2022-12-14T06:07:27.713Z,610.89
2022-12-14T06:08:38.581Z,606.13
2022-12-14T06:09:44.454Z,592.54
2022-12-14T06:10:47.688Z,608.80
2022-12-14T06:11:53.861Z,606.06
2022-12-14T06:12:58.182Z,619.14
2022-12-14T06:14:04.153Z,610.57
2022-12-14T06:15:09.038Z,617.56
2022-12-14T06:16:19.147Z,613.85
2022-12-14T06:17:22.456Z,612.59
2022-12-14T06:18:29.172Z,631.23
2022-12-14T06:19:35.071Z,637.88
2022-12-14T06:20:38.412Z,623.25
2022-12-14T06:21:46.856Z,626.66
2022-12-14T06:22:55.270Z,629.05
2022-12-14T06:24:03.352Z,629.44
2022-12-14T06:25:08.774Z,635.20
2022-12-14T06:26:15.979Z,617.65
2022-12-14T06:27:21.924Z,622.78
2022-12-14T06:28:26.317Z,615.35
2022-12-14T06:29:33.595Z,630.21
2022-12-14T06:30:36.973Z,619.47
2022-12-14T06:31:43.032Z,627.81
2022-12-14T06:32:46.513Z,626.62
2022-12-14T06:33:53.482Z,616.44
2022-12-14T06:35:00.259Z,604.52
2022-12-14T06:36:04.604Z,625.08
2022-12-14T06:37:10.813Z,614.51
2022-12-14T06:38:18.189Z,628.31
2022-12-14T06:39:24.245Z,629.90
2022-12-14T06:40:28.418Z,618.55
2022-12-14T06:41:34.838Z,620.62
2022-12-14T06:42:40.744Z,618.43
2022-12-14T06:43:49.353Z,613.46
2022-12-14T06:44:55.767Z,607.15
2022-12-14T06:46:00.104Z,617.00
2022-12-14T06:47:06.133Z,605.94
2022-12-14T06:48:10.043Z,631.51
2022-12-14T06:49:19.806Z,619.19
2022-12-14T06:50:23.213Z,602.99
2022-12-14T06:51:30.074Z,603.10
2022-12-14T06:52:37.743Z,619.19
2022-12-14T06:53:43.861Z,636.22
2022-12-14T06:54:50.816Z,649.41
2022-12-14T06:55:54.111Z,657.90
2022-12-14T06:57:00.927Z,683.96
2022-12-14T06:58:04.509Z,686.44
2022-12-14T06:59:11.575Z,702.96
2022-12-14T07:00:18.553Z,689.81
2022-12-14T07:01:29.035Z,682.15
2022-12-14T07:02:36.169Z,667.47
2022-12-14T07:03:43.759Z,684.73
2022-12-14T07:04:49.624Z,697.25
2022-12-14T07:05:57.529Z,699.78
2022-12-14T07:07:03.398Z,684.22
2022-12-14T07:08:07.584Z,701.51
2022-12-14T07:09:18.296Z,696.86
2022-12-14T07:10:24.364Z,689.57
2022-12-14T07:11:33.499Z,710.06
2022-12-14T07:12:37.477Z,702.45
2022-12-14T07:13:45.212Z,709.39
2022-12-14T07:14:54.895Z,704.95
2022-12-14T07:16:00.378Z,710.70
2022-12-14T07:17:07.547Z,705.80
2022-12-14T07:18:11.026Z,682.37
2022-12-14T07:19:18.322Z,684.91
2022-12-14T07:20:24.392Z,686.64
2022-12-14T07:21:30.532Z,699.65
2022-12-14T07:22:37.344Z,684.25
2022-12-14T07:23:43.157Z,679.24
2022-12-14T07:24:53.274Z,656.00
2022-12-14T07:26:02.732Z,677.97
2022-12-14T07:27:09.444Z,671.00
2022-12-14T07:28:12.702Z,644.71
2022-12-14T07:29:18.864Z,645.28
2022-12-14T07:30:23.125Z,638.01
2022-12-14T07:31:31.700Z,607.81
2022-12-14T07:32:37.732Z,581.67
2022-12-14T07:33:41.117Z,580.31
2022-12-14T07:34:47.041Z,569.59
2022-12-14T07:35:51.672Z,568.89
2022-12-14T07:36:58.534Z,561.54
2022-12-14T07:38:04.565Z,556.70
2022-12-14T07:39:10.968Z,555.86
2022-12-14T07:40:20.074Z,552.07
2022-12-14T07:41:27.118Z,555.87
2022-12-14T07:42:33.291Z,559.52
2022-12-14T07:43:36.875Z,565.79
2022-12-14T07:44:42.844Z,565.23
2022-12-14T07:45:46.191Z,551.26
2022-12-14T07:46:53.378Z,542.08
2022-12-14T07:47:59.329Z,546.99
2022-12-14T07:49:06.813Z,556.22
2022-12-14T07:50:13.508Z,546.41
2022-12-14T07:51:23.943Z,565.10
2022-12-14T07:52:37.152Z,550.91
2022-12-14T07:53:45.390Z,544.08
2022-12-14T07:54:52.662Z,561.28
2022-12-14T07:56:05.599Z,530.61
2022-12-14T07:57:11.457Z,500.81
2022-12-14T07:58:16.070Z,532.24
2022-12-14T07:59:22.472Z,584.63
2022-12-14T08:00:25.956Z,531.11
2022-12-14T08:01:34.632Z,489.17
2022-12-14T08:02:40.681Z,501.55
2022-12-14T08:03:51.075Z,502.27
2022-12-14T08:04:57.117Z,509.68
2022-12-14T08:06:04.541Z,507.30
2022-12-14T08:07:10.394Z,531.28
2022-12-14T08:08:14.112Z,528.95
2022-12-14T08:09:21.215Z,539.23
2022-12-14T08:10:25.213Z,550.29
2022-12-14T08:11:33.876Z,559.19
2022-12-14T08:12:40.333Z,570.26
2022-12-14T08:13:44.055Z,566.02
2022-12-14T08:14:52.122Z,569.73
2022-12-14T08:15:58.486Z,558.46
2022-12-14T08:17:05.489Z,565.57
2022-12-14T08:18:11.397Z,561.38
2022-12-14T08:19:15.292Z,547.35
2022-12-14T08:20:22.058Z,560.86
2022-12-14T08:21:29.882Z,535.17
2022-12-14T08:22:35.926Z,538.16
2022-12-14T08:23:43.392Z,530.18
2022-12-14T08:24:49.406Z,522.64
2022-12-14T08:25:55.371Z,525.96
2022-12-14T08:27:03.925Z,518.29
2022-12-14T08:28:07.336Z,525.51
2022-12-14T08:29:15.584Z,528.91
2022-12-14T08:30:21.680Z,534.41
2022-12-14T08:31:30.917Z,542.33
2022-12-14T08:32:37.142Z,537.20
2022-12-14T08:33:45.340Z,537.56
2022-12-14T08:34:52.623Z,535.11
2022-12-14T08:35:55.976Z,529.93
2022-12-14T08:37:02.827Z,517.69
2022-12-14T08:38:06.191Z,515.56
2022-12-14T08:39:14.207Z,518.03
2022-12-14T08:40:17.596Z,522.95
2022-12-14T08:41:23.842Z,516.64
2022-12-14T08:42:36.295Z,506.51
2022-12-14T08:43:45.368Z,510.65
2022-12-14T08:44:51.302Z,523.78
2022-12-14T08:45:55.862Z,517.77
2022-12-14T08:47:01.978Z,507.12
2022-12-14T08:48:06.792Z,521.65
2022-12-14T08:49:14.248Z,530.69
2022-12-14T08:50:20.681Z,525.49
2022-12-14T08:51:29.236Z,518.94
2022-12-14T08:52:35.291Z,503.50
2022-12-14T08:53:43.413Z,499.38
2022-12-14T08:54:49.420Z,507.96
2022-12-14T08:55:53.085Z,504.34
2022-12-14T08:56:58.964Z,507.18
2022-12-14T08:58:07.488Z,514.36
2022-12-14T08:59:30.237Z,528.67
2022-12-14T09:00:41.996Z,512.69
2022-12-14T09:01:48.508Z,531.17
2022-12-14T09:02:52.585Z,513.48
2022-12-14T09:03:58.778Z,513.35
2022-12-14T09:05:06.139Z,505.37
2022-12-14T09:06:17.370Z,508.69
2022-12-14T09:07:23.362Z,512.95
2022-12-14T09:08:30.383Z,492.60
2022-12-14T09:09:38.694Z,490.79
2022-12-14T09:10:51.972Z,498.96
2022-12-14T09:11:57.998Z,484.02
2022-12-14T09:13:04.006Z,483.69
2022-12-14T09:14:09.885Z,508.52
2022-12-14T09:15:15.891Z,493.15
2022-12-14T09:16:26.511Z,483.98
2022-12-14T09:17:32.920Z,480.46
2022-12-14T09:18:39.042Z,476.73
2022-12-14T09:19:45.169Z,465.79
2022-12-14T09:20:51.868Z,469.19
2022-12-14T09:21:59.477Z,478.19
2022-12-14T09:23:05.510Z,476.43
2022-12-14T09:24:13.293Z,484.02
2022-12-14T09:25:16.919Z,504.73
2022-12-14T09:26:26.199Z,485.10
2022-12-14T09:27:33.788Z,492.10
2022-12-14T09:28:45.206Z,493.12
2022-12-14T09:29:51.320Z,494.52
2022-12-14T09:31:02.317Z,483.89
2022-12-14T09:32:09.296Z,510.45
2022-12-14T09:33:13.566Z,488.54
2022-12-14T09:34:19.617Z,502.06
2022-12-14T09:35:25.657Z,476.25
2022-12-14T09:36:32.383Z,474.12
2022-12-14T09:37:39.252Z,496.44
2022-12-14T09:38:51.572Z,489.22
2022-12-14T09:39:58.246Z,507.49
2022-12-14T09:41:07.665Z,506.33
2022-12-14T09:42:50.523Z,521.12
2022-12-14T09:44:18.734Z,515.37
2022-12-14T09:45:35.680Z,517.84
2022-12-14T09:47:01.986Z,535.26
2022-12-14T09:48:20.522Z,538.57
2022-12-14T09:49:35.331Z,523.97
2022-12-14T09:50:43.771Z,511.57
2022-12-14T09:51:47.419Z,488.75
2022-12-14T09:52:59.167Z,496.55
2022-12-14T09:54:13.928Z,490.06
2022-12-14T09:55:27.416Z,491.57
2022-12-14T09:56:36.946Z,486.86
2022-12-14T09:57:48.092Z,518.14
2022-12-14T09:59:02.387Z,496.02
2022-12-14T10:00:18.306Z,495.19
2022-12-14T10:03:54.865Z,487.78
2022-12-14T10:05:35.477Z,488.83
2022-12-14T10:06:55.609Z,479.01
2022-12-14T10:08:11.896Z,477.79
2022-12-14T10:09:32.729Z,469.34
2022-12-14T10:10:53.787Z,478.35
2022-12-14T10:12:26.315Z,463.85
2022-12-14T10:13:59.318Z,456.45
2022-12-14T10:15:27.802Z,424.89
2022-12-14T10:16:52.088Z,431.69
2022-12-14T10:19:02.028Z,417.04
2022-12-14T10:20:25.226Z,408.41
2022-12-14T10:21:47.128Z,414.01
2022-12-14T10:22:56.509Z,412.34
2022-12-14T10:24:06.734Z,411.75
2022-12-14T10:25:21.756Z,418.86
2022-12-14T10:26:39.240Z,403.47
2022-12-14T10:28:12.492Z,391.48
2022-12-14T10:29:34.633Z,387.06
2022-12-14T10:30:46.879Z,389.29
2022-12-14T10:32:08.077Z,386.55
2022-12-14T10:33:27.823Z,413.24
2022-12-14T10:34:35.087Z,383.61
2022-12-14T10:35:53.149Z,393.50
2022-12-14T10:37:23.851Z,358.17
2022-12-14T10:38:44.459Z,338.17
2022-12-14T10:40:33.545Z,333.45
2022-12-14T10:41:53.246Z,348.42
2022-12-14T10:43:46.362Z,344.30
2022-12-14T10:45:39.865Z,347.49
2022-12-14T10:47:00.134Z,342.36
2022-12-14T10:48:40.004Z,349.16
2022-12-14T10:50:00.880Z,352.66
2022-12-14T10:51:14.023Z,358.95
2022-12-14T10:52:26.595Z,375.06
2022-12-14T10:53:44.205Z,380.44
2022-12-14T10:54:57.754Z,378.07
2022-12-14T10:56:15.316Z,374.12
2022-12-14T10:57:26.658Z,366.70
2022-12-14T10:58:30.304Z,373.00
2022-12-14T10:59:47.965Z,376.30
2022-12-14T11:01:06.647Z,376.87
2022-12-14T11:02:19.380Z,370.08
2022-12-14T11:03:26.555Z,354.92
2022-12-14T11:04:39.254Z,350.30
2022-12-14T11:06:01.921Z,377.67
2022-12-14T11:07:11.486Z,380.06
2022-12-14T11:08:48.346Z,394.16
2022-12-14T11:09:56.356Z,401.84
2022-12-14T11:11:19.181Z,420.43
2022-12-14T11:12:29.994Z,404.46
2022-12-14T11:13:35.995Z,407.96
2022-12-14T11:14:53.492Z,401.49
2022-12-14T11:16:33.640Z,391.29
2022-12-14T11:17:47.225Z,370.45
2022-12-14T11:19:00.106Z,381.48
2022-12-14T11:20:24.465Z,380.81
2022-12-14T11:21:38.204Z,379.35
2022-12-14T11:22:49.210Z,369.20
2022-12-14T11:23:58.464Z,362.00
2022-12-14T11:25:04.501Z,372.97
2022-12-14T11:26:17.843Z,378.06
2022-12-14T11:27:25.146Z,379.90
2022-12-14T11:28:37.724Z,367.02
2022-12-14T11:29:51.080Z,381.19
2022-12-14T11:31:06.019Z,375.19
2022-12-14T11:32:25.951Z,379.69
2022-12-14T11:33:43.296Z,370.07
2022-12-14T11:35:00.387Z,375.54
2022-12-14T11:36:07.543Z,374.81
2022-12-14T11:37:26.543Z,361.46
2022-12-14T11:38:34.311Z,355.55
2022-12-14T11:39:45.349Z,388.28
2022-12-14T11:40:55.718Z,402.73
2022-12-14T11:42:07.036Z,380.37
2022-12-14T11:43:30.211Z,378.09
2022-12-14T11:44:40.202Z,388.11
2022-12-14T11:45:55.117Z,435.70
2022-12-14T11:47:10.007Z,410.31
2022-12-14T11:48:26.107Z,437.94
2022-12-14T11:49:46.426Z,416.10
2022-12-14T11:50:56.408Z,423.49
2022-12-14T11:52:12.253Z,443.81
2022-12-14T11:53:21.730Z,434.23
2022-12-14T11:54:30.870Z,412.62
2022-12-14T11:55:43.535Z,467.69
2022-12-14T11:56:54.401Z,442.24
2022-12-14T11:58:02.904Z,402.05
2022-12-14T11:59:09.166Z,389.06
2022-12-14T12:00:28.742Z,436.07
2022-12-14T12:01:35.178Z,491.08
2022-12-14T12:02:51.912Z,472.98
2022-12-14T12:04:01.851Z,505.57
2022-12-14T12:05:18.993Z,412.54
2022-12-14T12:06:28.684Z,430.13
2022-12-14T12:07:39.486Z,428.99
2022-12-14T12:08:47.897Z,372.18
2022-12-14T12:09:51.583Z,395.95
2022-12-14T12:11:02.373Z,404.87
2022-12-14T12:12:18.245Z,427.47
2022-12-14T12:13:33.137Z,403.25
2022-12-14T12:14:42.914Z,395.10
2022-12-14T12:15:57.557Z,434.67
2022-12-14T12:17:05.602Z,438.52
2022-12-14T12:18:24.332Z,394.95
2022-12-14T12:19:40.583Z,388.42
2022-12-14T12:21:00.148Z,434.15
2022-12-14T12:22:13.584Z,427.36
2022-12-14T12:23:29.154Z,466.40
2022-12-14T12:25:16.273Z,496.58
2022-12-14T12:26:22.851Z,467.61
2022-12-14T12:27:32.529Z,479.75
2022-12-14T12:28:50.404Z,459.31
2022-12-14T12:30:07.994Z,472.26
2022-12-14T12:31:29.375Z,437.35
2022-12-14T12:32:50.257Z,414.90
2022-12-14T12:34:05.711Z,404.63
2022-12-14T12:35:24.193Z,384.95
2022-12-14T12:36:36.534Z,391.13
2022-12-14T12:37:51.951Z,401.67
2022-12-14T12:39:09.633Z,406.84
2022-12-14T12:40:20.171Z,410.62
2022-12-14T12:41:41.209Z,402.07
2022-12-14T12:42:57.363Z,410.27
2022-12-14T12:44:24.257Z,406.74
2022-12-14T12:45:41.152Z,382.54
2022-12-14T12:47:25.564Z,369.53
2022-12-14T12:48:42.811Z,360.42
2022-12-14T12:49:48.925Z,375.85
2022-12-14T12:51:05.032Z,351.72
2022-12-14T12:52:27.259Z,350.14
2022-12-14T12:53:41.978Z,358.31
2022-12-14T12:55:04.292Z,345.64
2022-12-14T12:56:18.707Z,366.81
2022-12-14T12:57:29.443Z,371.13
2022-12-14T12:58:37.427Z,368.86
2022-12-14T12:59:53.462Z,370.56
2022-12-14T13:01:05.584Z,382.27
2022-12-14T13:02:31.499Z,381.38
2022-12-14T13:03:46.031Z,395.84
2022-12-14T13:04:56.915Z,404.30
2022-12-14T13:06:18.931Z,402.76
2022-12-14T13:07:39.670Z,429.77
2022-12-14T13:08:51.745Z,434.61
2022-12-14T13:10:06.511Z,439.41
2022-12-14T13:11:26.752Z,418.04
2022-12-14T13:12:42.150Z,413.52
2022-12-14T13:13:55.733Z,401.37
2022-12-14T13:15:08.166Z,424.26
2022-12-14T13:16:27.470Z,407.82
2022-12-14T13:17:47.166Z,407.92
2022-12-14T13:19:25.308Z,413.06
2022-12-14T13:20:36.755Z,435.02
2022-12-14T13:21:50.073Z,431.14
2022-12-14T13:23:15.230Z,431.57
2022-12-14T13:24:27.493Z,430.93
2022-12-14T13:25:55.036Z,460.48
2022-12-14T13:27:34.945Z,467.05
2022-12-14T13:29:04.822Z,480.50
2022-12-14T13:30:35.609Z,459.47
2022-12-14T13:31:58.840Z,454.97
2022-12-14T13:33:55.198Z,463.35
2022-12-14T13:35:26.162Z,464.90
2022-12-14T13:37:05.345Z,487.99
2022-12-14T13:38:48.742Z,470.94
2022-12-14T13:40:42.099Z,444.60
2022-12-14T13:42:05.071Z,451.59
2022-12-14T13:43:37.378Z,448.22
2022-12-14T13:45:01.967Z,434.48
2022-12-14T13:46:19.897Z,427.49
2022-12-14T13:47:36.004Z,437.27
2022-12-14T13:48:45.009Z,404.87
2022-12-14T13:51:37.871Z,437.59
2022-12-14T13:52:50.932Z,446.35
2022-12-14T13:54:03.675Z,455.87
2022-12-14T13:55:30.753Z,424.51
2022-12-14T13:56:42.223Z,412.01
2022-12-14T13:57:46.651Z,406.47
2022-12-14T13:59:00.545Z,404.57
2022-12-14T14:00:08.050Z,406.97
2022-12-14T14:01:39.908Z,435.98
2022-12-14T14:02:55.879Z,417.06
2022-12-14T14:04:25.967Z,427.76
2022-12-14T14:05:48.780Z,410.85
2022-12-14T14:06:56.445Z,416.12
2022-12-14T14:08:06.372Z,415.76
2022-12-14T14:10:04.447Z,430.73
2022-12-14T14:12:04.866Z,424.09
2022-12-14T14:13:55.396Z,454.21
2022-12-14T14:15:31.822Z,502.53
2022-12-14T14:16:46.058Z,653.21
2022-12-14T14:17:58.536Z,583.07
2022-12-14T14:19:22.930Z,603.96
2022-12-14T14:20:42.763Z,518.08
2022-12-14T14:22:24.635Z,468.75
2022-12-14T14:23:56.148Z,488.60
2022-12-14T14:25:10.081Z,483.56
2022-12-14T14:26:37.382Z,480.09
2022-12-14T14:27:52.617Z,472.66
2022-12-14T14:29:27.722Z,477.42
2022-12-14T14:30:44.642Z,474.63
2022-12-14T14:31:57.846Z,447.69
2022-12-14T14:33:48.708Z,440.37
2022-12-14T14:34:56.520Z,443.81
2022-12-14T14:36:13.577Z,439.16
2022-12-14T14:37:34.382Z,457.60
2022-12-14T14:38:41.742Z,457.05
2022-12-14T14:39:57.656Z,470.79
2022-12-14T14:41:17.616Z,489.97
2022-12-14T14:42:32.044Z,494.52
2022-12-14T14:43:45.360Z,535.37
2022-12-14T14:45:00.286Z,576.86
2022-12-14T14:46:14.486Z,723.65
2022-12-14T14:47:34.247Z,618.37
2022-12-14T14:48:53.270Z,563.22
2022-12-14T14:50:06.198Z,529.51
2022-12-14T14:51:27.195Z,510.28
2022-12-14T14:53:32.217Z,502.44
2022-12-14T14:56:46.657Z,488.51
2022-12-14T14:58:03.887Z,507.77
2022-12-14T14:59:50.759Z,512.83
2022-12-14T15:01:15.498Z,501.73
2022-12-14T15:02:43.146Z,486.14
2022-12-14T15:04:00.190Z,484.84
2022-12-14T15:05:40.980Z,478.72
2022-12-14T15:06:47.491Z,499.23
2022-12-14T15:07:56.769Z,506.42
2022-12-14T15:09:15.465Z,529.95
2022-12-14T15:10:35.565Z,512.70
2022-12-14T15:11:50.508Z,491.98
2022-12-14T15:13:06.263Z,481.07
2022-12-14T15:14:36.393Z,468.38
2022-12-14T15:15:48.881Z,454.33